createdAt,value
2019-04-30T00:01:41.836Z,26.97
2019-04-30T00:06:45.913Z,24.07
2019-04-30T00:11:50.577Z,24.20
2019-04-30T00:16:55.349Z,25.57
2019-04-30T00:22:00.586Z,21.20
2019-04-30T00:27:05.126Z,22.95
2019-04-30T00:32:09.091Z,23.20
2019-04-30T00:37:14.132Z,24.00
2019-04-30T00:42:24.269Z,22.93
2019-04-30T00:47:25.707Z,22.00
2019-04-30T00:52:33.785Z,24.02
2019-04-30T00:57:37.328Z,24.15
2019-04-30T01:03:05.876Z,24.25
2019-04-30T01:08:11.071Z,24.02
2019-04-30T01:13:14.961Z,22.07
2019-04-30T01:18:19.283Z,23.65
2019-04-30T01:23:23.339Z,23.80
2019-04-30T01:28:28.484Z,24.10
2019-04-30T01:33:34.441Z,22.07
2019-04-30T01:38:40.048Z,38.48
2019-04-30T01:43:43.477Z,27.17
2019-04-30T01:48:48.639Z,20.88
2019-04-30T01:53:52.901Z,25.25
2019-04-30T01:58:59.515Z,23.73
2019-04-30T02:04:03.538Z,25.37
2019-04-30T02:09:09.084Z,22.62
2019-04-30T02:14:13.084Z,23.50
2019-04-30T02:19:18.735Z,23.60
2019-04-30T02:24:22.509Z,23.65
2019-04-30T02:29:26.383Z,20.70
2019-04-30T02:34:31.834Z,23.00
2019-04-30T02:39:35.712Z,25.82
2019-04-30T02:44:42.093Z,20.02
2019-04-30T02:49:49.997Z,18.70
2019-04-30T02:54:53.897Z,22.30
2019-04-30T03:00:05.414Z,21.85
2019-04-30T03:05:12.951Z,24.20
2019-04-30T03:10:15.034Z,23.25
2019-04-30T03:15:22.362Z,15.83
2019-04-30T03:20:32.685Z,19.15
2019-04-30T03:25:31.690Z,14.80
2019-04-30T03:30:35.614Z,26.85
2019-04-30T03:35:46.837Z,18.45
2019-04-30T03:40:45.098Z,19.82
2019-04-30T03:45:49.961Z,19.02
2019-04-30T03:50:56.955Z,16.65
2019-04-30T03:56:01.453Z,20.23
2019-04-30T04:01:23.090Z,13.75
2019-04-30T04:06:34.367Z,19.92
2019-04-30T04:11:39.858Z,18.42
2019-04-30T04:16:43.753Z,18.10
2019-04-30T04:21:47.562Z,16.67
2019-04-30T04:26:51.447Z,17.02
2019-04-30T04:31:55.330Z,18.60
2019-04-30T04:37:00.036Z,15.00
2019-04-30T04:42:04.091Z,16.48
2019-04-30T04:47:09.925Z,17.37
2019-04-30T04:52:13.477Z,18.87
2019-04-30T04:57:19.267Z,21.10
2019-04-30T05:02:35.997Z,14.85
2019-04-30T05:07:40.119Z,14.70
2019-04-30T05:12:44.058Z,14.10
2019-04-30T05:17:49.487Z,16.85
2019-04-30T05:22:53.503Z,13.22
2019-04-30T05:27:58.721Z,15.55
2019-04-30T05:33:02.652Z,15.65
2019-04-30T05:38:06.538Z,13.40
2019-04-30T05:43:11.377Z,15.63
2019-04-30T05:48:15.437Z,15.98
2019-04-30T05:53:19.372Z,13.80
2019-04-30T05:58:23.304Z,16.32
2019-04-30T06:03:30.767Z,17.30
2019-04-30T06:08:34.382Z,21.42
2019-04-30T06:13:49.235Z,15.45
2019-04-30T06:18:53.198Z,15.80
2019-04-30T06:23:59.084Z,17.10
2019-04-30T06:29:03.112Z,13.75
2019-04-30T06:34:08.559Z,19.40
2019-04-30T06:39:12.577Z,17.52
2019-04-30T06:44:16.789Z,15.30
2019-04-30T06:49:21.179Z,17.40
2019-04-30T06:54:25.039Z,14.45
2019-04-30T06:59:29.950Z,18.40
2019-04-30T07:04:33.928Z,15.83
2019-04-30T07:09:56.774Z,14.45
2019-04-30T07:14:59.077Z,13.53
2019-04-30T07:20:02.844Z,22.13
2019-04-30T07:25:09.432Z,19.30
2019-04-30T07:30:13.120Z,20.12
2019-04-30T07:35:19.327Z,22.07
2019-04-30T07:40:22.645Z,20.60
2019-04-30T07:45:26.568Z,16.85
2019-04-30T07:50:31.602Z,16.37
2019-04-30T07:55:36.121Z,14.63
2019-04-30T08:00:40.433Z,21.15
2019-04-30T08:05:46.354Z,19.35
2019-04-30T08:10:50.994Z,18.37
2019-04-30T08:15:55.054Z,18.95
2019-04-30T08:21:01.023Z,16.23
2019-04-30T08:26:04.650Z,13.18
2019-04-30T08:31:09.072Z,21.23
2019-04-30T08:36:13.303Z,20.12
2019-04-30T08:41:19.251Z,20.65
2019-04-30T08:46:23.117Z,17.17
2019-04-30T08:51:28.827Z,25.80
2019-04-30T08:56:32.610Z,19.73
2019-04-30T09:01:38.587Z,18.73
2019-04-30T09:06:42.122Z,16.87
2019-04-30T09:11:53.106Z,16.37
2019-04-30T09:16:51.723Z,22.77
2019-04-30T09:21:55.653Z,19.30
2019-04-30T09:26:59.584Z,19.75
2019-04-30T09:32:03.518Z,19.57
2019-04-30T09:37:08.707Z,22.10
2019-04-30T09:42:12.956Z,17.37
2019-04-30T09:47:16.880Z,16.23
2019-04-30T09:52:21.043Z,22.25
2019-04-30T09:57:25.459Z,16.12
2019-04-30T10:02:29.587Z,18.77
2019-04-30T10:07:33.514Z,22.17
2019-04-30T10:12:39.158Z,18.40
2019-04-30T10:17:44.949Z,18.55
2019-04-30T10:22:49.510Z,14.68
2019-04-30T10:27:53.598Z,22.20
2019-04-30T10:32:59.556Z,20.40
2019-04-30T10:38:03.811Z,19.95
2019-04-30T10:43:08.855Z,19.27
2019-04-30T10:48:13.917Z,21.45
2019-04-30T10:53:17.968Z,19.45
2019-04-30T10:58:22.199Z,17.15
2019-04-30T11:03:26.335Z,17.67
2019-04-30T11:08:30.363Z,15.83
2019-04-30T11:13:34.394Z,17.40
2019-04-30T11:18:38.532Z,21.42
2019-04-30T11:23:42.743Z,18.57
2019-04-30T11:28:47.059Z,19.55
2019-04-30T11:33:51.814Z,19.05
2019-04-30T11:38:55.766Z,21.40
2019-04-30T11:43:59.692Z,20.25
2019-04-30T11:49:03.618Z,17.45
2019-04-30T11:54:08.926Z,17.65
2019-04-30T11:59:13.293Z,19.10
2019-04-30T12:04:19.076Z,23.00
2019-04-30T12:09:24.857Z,18.00
2019-04-30T12:14:42.200Z,19.35
2019-04-30T12:19:48.712Z,22.07
2019-04-30T12:25:02.223Z,13.32
2019-04-30T12:29:59.423Z,21.50
2019-04-30T12:35:03.992Z,18.02
2019-04-30T12:40:13.906Z,13.93
2019-04-30T12:45:14.915Z,14.75
2019-04-30T12:50:23.959Z,19.57
2019-04-30T12:55:35.346Z,15.40
2019-04-30T13:00:39.276Z,16.20
2019-04-30T13:05:43.498Z,16.02
2019-04-30T13:10:48.040Z,14.10
2019-04-30T13:15:52.314Z,12.30
2019-04-30T13:20:56.269Z,12.25
2019-04-30T13:26:01.057Z,11.65
2019-04-30T13:31:05.176Z,11.78
2019-04-30T13:36:09.104Z,12.40
2019-04-30T13:41:14.652Z,19.60
2019-04-30T13:46:18.614Z,10.82
2019-04-30T13:51:22.507Z,11.85
2019-04-30T13:56:28.542Z,9.88
2019-04-30T14:01:32.313Z,16.57
2019-04-30T14:06:55.903Z,12.88
2019-04-30T14:12:00.136Z,16.93
2019-04-30T14:17:04.264Z,12.33
2019-04-30T14:22:09.076Z,17.73
2019-04-30T14:27:13.246Z,14.28
2019-04-30T14:32:18.665Z,14.23
2019-04-30T14:37:22.943Z,14.95
2019-04-30T14:42:27.564Z,18.32
2019-04-30T14:47:37.995Z,15.88
2019-04-30T14:52:43.835Z,18.98
2019-04-30T14:57:52.168Z,16.93
2019-04-30T15:02:59.614Z,17.07
2019-04-30T15:08:03.502Z,12.10
2019-04-30T15:13:09.585Z,13.28
2019-04-30T15:18:13.303Z,16.42
2019-04-30T15:23:21.650Z,13.90
2019-04-30T15:28:32.171Z,11.45
2019-04-30T15:33:36.039Z,14.18
2019-04-30T15:38:53.484Z,15.78
2019-04-30T15:43:57.408Z,10.45
2019-04-30T15:49:01.644Z,11.63
2019-04-30T15:54:06.576Z,10.70
2019-04-30T15:59:28.988Z,11.63
2019-04-30T16:04:35.737Z,11.53
2019-04-30T16:09:58.577Z,13.20
2019-04-30T16:15:02.546Z,18.02
2019-04-30T16:20:07.597Z,15.50
2019-04-30T16:25:11.711Z,11.55
2019-04-30T16:30:16.245Z,12.53
2019-04-30T16:35:20.306Z,9.88
2019-04-30T16:40:25.685Z,13.72
2019-04-30T16:45:29.691Z,10.50
2019-04-30T16:50:33.666Z,14.20
2019-04-30T16:55:37.649Z,11.95
2019-04-30T17:00:42.087Z,10.23
2019-04-30T17:05:59.635Z,11.60
2019-04-30T17:11:10.758Z,13.43
2019-04-30T17:16:19.560Z,10.03
2019-04-30T17:21:23.679Z,11.95
2019-04-30T17:26:27.641Z,9.65
2019-04-30T17:31:31.575Z,27.37
2019-04-30T17:36:35.481Z,42.30
2019-04-30T17:41:39.427Z,29.72
2019-04-30T17:46:43.400Z,13.40
2019-04-30T17:51:48.975Z,17.10
2019-04-30T17:56:52.810Z,17.10
2019-04-30T18:01:59.690Z,23.87
2019-04-30T18:07:03.882Z,26.25
2019-04-30T18:12:09.380Z,41.05
2019-04-30T18:17:13.453Z,25.52
2019-04-30T18:22:19.498Z,29.37
2019-04-30T18:27:29.459Z,48.05
2019-04-30T18:32:33.498Z,104.32
2019-04-30T18:37:38.722Z,116.40
2019-04-30T18:42:42.686Z,70.90
2019-04-30T18:47:46.585Z,35.60
2019-04-30T18:52:52.187Z,23.98
2019-04-30T18:57:57.124Z,18.90
2019-04-30T19:03:01.635Z,24.72
2019-04-30T19:08:23.368Z,26.07
2019-04-30T19:13:31.866Z,33.18
2019-04-30T19:18:49.030Z,31.87
2019-04-30T19:23:52.923Z,23.25
2019-04-30T19:28:56.800Z,17.85
2019-04-30T19:34:00.679Z,17.32
2019-04-30T19:39:08.626Z,10.38
2019-04-30T19:44:12.703Z,12.58
2019-04-30T19:49:16.597Z,11.30
2019-04-30T19:54:20.480Z,12.28
2019-04-30T19:59:24.356Z,11.70
2019-04-30T20:04:34.141Z,11.70
2019-04-30T20:09:33.890Z,13.60
2019-04-30T20:14:41.607Z,15.08
2019-04-30T20:19:45.737Z,11.50
2019-04-30T20:24:49.669Z,12.55
2019-04-30T20:29:53.603Z,18.35
2019-04-30T20:34:59.595Z,18.62
2019-04-30T20:40:08.707Z,16.55
2019-04-30T20:45:12.887Z,8.45
2019-04-30T20:50:16.780Z,10.70
2019-04-30T20:55:20.706Z,9.93
2019-04-30T21:00:25.557Z,13.55
2019-04-30T21:05:29.584Z,8.15
2019-04-30T21:10:33.691Z,11.22
2019-04-30T21:15:45.239Z,9.33
2019-04-30T21:20:49.838Z,12.30
2019-04-30T21:25:53.730Z,12.65
2019-04-30T21:30:59.227Z,12.65
2019-04-30T21:36:18.418Z,12.88
2019-04-30T21:41:22.363Z,13.83
2019-04-30T21:46:26.263Z,12.55
2019-04-30T21:51:30.937Z,9.15
2019-04-30T21:56:34.928Z,16.50
2019-04-30T22:01:39.130Z,10.40
2019-04-30T22:06:43.320Z,14.87
2019-04-30T22:11:49.277Z,8.63
2019-04-30T22:16:53.112Z,16.93
2019-04-30T22:21:59.344Z,11.30
2019-04-30T22:27:03.234Z,9.13
2019-04-30T22:32:09.220Z,22.87
2019-04-30T22:37:12.749Z,12.70
2019-04-30T22:42:31.282Z,8.00
2019-04-30T22:47:35.324Z,16.25
2019-04-30T22:52:39.861Z,10.58
2019-04-30T22:57:44.806Z,8.68
2019-04-30T23:02:50.322Z,9.73
2019-04-30T23:07:54.529Z,10.32
2019-04-30T23:12:58.400Z,14.28
2019-04-30T23:18:02.271Z,13.78
2019-04-30T23:23:06.199Z,11.60
2019-04-30T23:28:10.080Z,10.82
2019-04-30T23:33:13.958Z,9.70
2019-04-30T23:38:17.850Z,12.23
2019-04-30T23:43:22.037Z,10.38
2019-04-30T23:48:25.899Z,11.50
2019-04-30T23:53:29.777Z,13.50
2019-04-30T23:58:33.663Z,14.28
